Heat Index SAI AWOS Graphical Display Untitled Document
Bertrand Chaffee Hospital Heliport (2NK6) Springville, New York, USA
170
12:10
04/12/2016
00
N/A
N/A
30.20
N/A
1420
34(F), 1(C)
32(F), 0(C)
34 F
92%
OVC037
10
N/A
0"
N/A
12:10 zulu Wind Calm, Altimeter 30.20
METAR K2NK6 041210Z AUTO 00000KT 10SM OVC037 01/00 A3020 A02 P0000
METAR:
FAA Disclaimer--Advisory Use ONLY, not for flight info--
INFO:
Wind Direction:
Wind Speed:
Wind Gust:
Wind Variable:
Altimeter:
Dens Alt:
Elev:
Temp:
Dwpt:
Wind Chill
Rel Humidity:
Ceiling:
Visibility:
Prsnt Wea:
PCPN:
Remarks:
How to read the WebPage